createdAt,value
2022-12-17T00:02:33.910Z,3.63
2022-12-17T00:05:19.234Z,2.95
2022-12-17T00:08:04.121Z,4.13
2022-12-17T00:10:48.898Z,2.85
2022-12-17T00:13:41.432Z,3.22
2022-12-17T00:16:26.801Z,3.45
2022-12-17T00:19:11.904Z,3.65
2022-12-17T00:21:56.828Z,3.00
2022-12-17T00:24:42.633Z,3.08
2022-12-17T00:27:28.148Z,3.35
2022-12-17T00:30:13.106Z,2.80
2022-12-17T00:32:57.883Z,3.55
2022-12-17T00:35:42.914Z,3.70
2022-12-17T00:41:18.448Z,3.05
2022-12-17T00:44:03.391Z,3.67
2022-12-17T00:46:48.212Z,5.07
2022-12-17T00:49:33.546Z,3.92
2022-12-17T00:52:24.394Z,3.80
2022-12-17T00:55:09.469Z,2.88
2022-12-17T00:57:54.238Z,3.63
2022-12-17T01:00:41.325Z,4.22
2022-12-17T01:03:29.891Z,3.83
2022-12-17T01:06:17.048Z,3.85
2022-12-17T01:09:01.978Z,3.65
2022-12-17T01:11:46.782Z,3.78
2022-12-17T01:14:33.202Z,3.67
2022-12-17T01:17:18.018Z,3.63
2022-12-17T01:20:02.976Z,3.65
2022-12-17T01:22:48.021Z,3.78
2022-12-17T01:25:33.056Z,4.35
2022-12-17T01:28:17.869Z,3.88
2022-12-17T01:31:02.660Z,4.03
2022-12-17T01:33:47.489Z,4.70
2022-12-17T01:36:32.337Z,4.82
2022-12-17T01:39:17.323Z,3.42
2022-12-17T01:42:02.431Z,3.88
2022-12-17T01:45:04.180Z,4.00
2022-12-17T01:48:15.382Z,3.38
2022-12-17T01:51:04.513Z,5.40
2022-12-17T01:53:54.062Z,4.22
2022-12-17T01:56:43.914Z,3.80
2022-12-17T01:59:31.624Z,3.83
2022-12-17T02:02:17.258Z,3.42
2022-12-17T02:05:02.583Z,3.33
2022-12-17T02:07:59.547Z,4.68
2022-12-17T02:11:24.163Z,4.45
2022-12-17T02:14:21.041Z,4.28
2022-12-17T02:17:11.886Z,5.55
2022-12-17T02:20:02.909Z,5.38
2022-12-17T02:23:17.465Z,5.90
2022-12-17T02:26:13.514Z,4.45
2022-12-17T02:29:04.733Z,4.70
2022-12-17T02:31:51.166Z,4.40
2022-12-17T02:34:36.488Z,3.53
2022-12-17T02:37:21.860Z,6.30
2022-12-17T02:40:07.684Z,4.63
2022-12-17T02:42:54.283Z,5.03
2022-12-17T02:45:39.909Z,4.90
2022-12-17T02:48:26.350Z,4.18
2022-12-17T02:51:11.708Z,4.03
2022-12-17T02:54:08.962Z,4.32
2022-12-17T02:56:54.013Z,3.80
2022-12-17T02:59:52.605Z,3.85
2022-12-17T03:02:37.950Z,3.60
2022-12-17T03:08:30.159Z,4.50
2022-12-17T03:11:15.128Z,4.60
2022-12-17T03:14:00.422Z,4.32
2022-12-17T03:16:45.607Z,4.63
2022-12-17T03:19:30.770Z,5.65
2022-12-17T03:22:15.621Z,6.38
2022-12-17T03:25:00.627Z,4.68
2022-12-17T03:27:53.012Z,4.32
2022-12-17T03:30:39.086Z,4.00
2022-12-17T03:33:27.107Z,5.50
2022-12-17T03:36:13.487Z,5.57
2022-12-17T03:38:58.310Z,4.68
2022-12-17T03:41:43.189Z,4.68
2022-12-17T03:44:28.013Z,4.97
2022-12-17T03:47:12.942Z,4.60
2022-12-17T03:49:57.842Z,4.28
2022-12-17T03:52:42.734Z,4.70
2022-12-17T03:55:27.533Z,6.75
2022-12-17T03:58:12.349Z,5.85
2022-12-17T04:00:57.288Z,6.43
2022-12-17T04:03:42.391Z,4.90
2022-12-17T04:06:27.657Z,5.38
2022-12-17T04:09:12.482Z,8.63
2022-12-17T04:11:57.892Z,8.57
2022-12-17T04:14:42.780Z,6.32
2022-12-17T04:17:27.579Z,6.18
2022-12-17T04:20:12.435Z,5.53
2022-12-17T04:22:57.295Z,5.47
2022-12-17T04:25:42.089Z,6.20
2022-12-17T04:28:26.843Z,4.50
2022-12-17T04:31:11.724Z,6.10
2022-12-17T04:33:56.824Z,5.32
2022-12-17T04:36:41.754Z,8.00
2022-12-17T04:39:31.140Z,4.88
2022-12-17T04:42:15.956Z,9.07
2022-12-17T04:45:02.243Z,5.93
2022-12-17T04:47:47.204Z,7.10
2022-12-17T04:50:32.037Z,5.95
2022-12-17T04:53:24.398Z,6.38
2022-12-17T04:56:09.786Z,6.93
2022-12-17T04:58:54.457Z,5.60
2022-12-17T05:01:39.461Z,5.35
2022-12-17T05:04:24.920Z,6.97
2022-12-17T05:07:09.802Z,6.10
2022-12-17T05:09:54.795Z,5.40
2022-12-17T05:12:39.613Z,6.70
2022-12-17T05:15:25.489Z,6.13
2022-12-17T05:18:10.366Z,5.83
2022-12-17T05:20:55.244Z,5.97
2022-12-17T05:23:40.090Z,5.78
2022-12-17T05:26:31.894Z,8.27
2022-12-17T05:29:16.773Z,7.95
2022-12-17T05:32:01.610Z,5.97
2022-12-17T05:34:46.444Z,6.57
2022-12-17T05:37:31.279Z,4.82
2022-12-17T05:40:20.569Z,7.35
2022-12-17T05:43:25.359Z,7.32
2022-12-17T05:46:10.901Z,9.80
2022-12-17T05:48:56.062Z,5.38
2022-12-17T05:51:42.064Z,6.43
2022-12-17T05:54:27.425Z,10.10
2022-12-17T05:57:12.765Z,5.35
2022-12-17T05:59:57.973Z,8.55
2022-12-17T06:02:43.519Z,6.45
2022-12-17T06:05:29.151Z,5.38
2022-12-17T06:08:25.769Z,5.85
2022-12-17T06:11:10.916Z,7.50
2022-12-17T06:13:56.162Z,5.13
2022-12-17T06:16:41.444Z,6.20
2022-12-17T06:19:26.482Z,6.05
2022-12-17T06:22:11.295Z,5.13
2022-12-17T06:24:56.277Z,6.10
2022-12-17T06:27:41.018Z,5.10
2022-12-17T06:30:26.383Z,5.03
2022-12-17T06:33:11.169Z,5.03
2022-12-17T06:35:56.056Z,7.75
2022-12-17T06:38:40.937Z,7.47
2022-12-17T06:41:25.758Z,6.50
2022-12-17T06:44:11.363Z,8.38
2022-12-17T06:46:56.167Z,7.75
2022-12-17T06:49:41.462Z,7.00
2022-12-17T06:52:26.412Z,6.80
2022-12-17T06:55:11.122Z,8.52
2022-12-17T06:57:55.853Z,10.40
2022-12-17T07:00:42.482Z,10.23
2022-12-17T07:03:30.282Z,11.48
2022-12-17T07:06:19.058Z,10.60
2022-12-17T07:09:04.926Z,17.80
2022-12-17T07:11:49.739Z,12.27
2022-12-17T07:14:34.765Z,14.20
2022-12-17T07:17:19.662Z,15.05
2022-12-17T07:20:04.369Z,15.32
2022-12-17T07:22:49.311Z,9.23
2022-12-17T07:25:34.730Z,15.15
2022-12-17T07:28:19.609Z,11.35
2022-12-17T07:31:04.442Z,20.20
2022-12-17T07:33:49.285Z,22.67
2022-12-17T07:36:34.178Z,8.35
2022-12-17T07:39:19.023Z,8.10
2022-12-17T07:42:03.755Z,11.60
2022-12-17T07:44:48.634Z,11.65
2022-12-17T07:47:33.486Z,9.32
2022-12-17T07:50:18.451Z,10.25
2022-12-17T07:53:05.178Z,7.50
2022-12-17T07:55:50.038Z,8.85
2022-12-17T07:58:35.061Z,8.63
2022-12-17T08:01:20.807Z,10.90
2022-12-17T08:04:05.969Z,14.67
2022-12-17T08:06:52.242Z,12.55
2022-12-17T08:09:40.048Z,15.65
2022-12-17T08:12:25.426Z,15.75
2022-12-17T08:15:10.254Z,20.90
2022-12-17T08:17:55.297Z,21.10
2022-12-17T08:20:40.595Z,27.70
2022-12-17T08:23:25.577Z,36.78
2022-12-17T08:26:10.409Z,33.08
2022-12-17T08:28:55.294Z,21.75
2022-12-17T08:31:42.597Z,19.13
2022-12-17T08:34:27.378Z,20.70
2022-12-17T08:37:12.501Z,21.63
2022-12-17T08:39:57.198Z,18.17
2022-12-17T08:42:42.009Z,18.40
2022-12-17T08:45:27.427Z,23.55
2022-12-17T08:48:12.633Z,24.83
2022-12-17T08:50:57.963Z,25.15
2022-12-17T08:53:43.466Z,34.33
2022-12-17T08:56:28.845Z,34.53
2022-12-17T08:59:14.118Z,22.00
2022-12-17T09:01:59.795Z,25.02
2022-12-17T09:04:45.078Z,23.80
2022-12-17T09:07:30.054Z,21.27
2022-12-17T09:10:15.323Z,19.25
2022-12-17T09:13:04.638Z,16.63
2022-12-17T09:15:50.276Z,16.88
2022-12-17T09:19:00.343Z,19.85
2022-12-17T09:21:47.261Z,27.25
2022-12-17T09:24:32.526Z,27.38
2022-12-17T09:27:18.108Z,22.50
2022-12-17T09:30:03.397Z,28.63
2022-12-17T09:32:49.472Z,28.17
2022-12-17T09:35:34.860Z,20.85
2022-12-17T09:38:20.336Z,31.83
2022-12-17T09:41:08.901Z,15.30
2022-12-17T09:44:25.104Z,18.08
2022-12-17T09:47:15.785Z,17.40
2022-12-17T09:50:00.959Z,18.65
2022-12-17T09:52:50.431Z,18.55
2022-12-17T09:55:49.125Z,24.15
2022-12-17T09:58:43.712Z,19.25
2022-12-17T10:01:38.826Z,24.23
2022-12-17T10:04:42.922Z,23.52
2022-12-17T10:07:33.741Z,29.67
2022-12-17T10:10:29.769Z,27.98
2022-12-17T10:13:14.639Z,27.52
2022-12-17T10:16:01.734Z,29.45
2022-12-17T10:18:48.362Z,25.63
2022-12-17T10:21:36.704Z,43.20
2022-12-17T10:24:29.353Z,29.23
2022-12-17T10:27:14.736Z,24.48
2022-12-17T10:30:02.160Z,21.30
2022-12-17T10:32:49.058Z,22.20
2022-12-17T10:35:40.796Z,19.30
2022-12-17T10:38:49.826Z,22.27
2022-12-17T10:41:47.294Z,19.45
2022-12-17T10:47:30.454Z,15.32
2022-12-17T10:50:16.864Z,20.05
2022-12-17T10:53:05.010Z,16.40
2022-12-17T10:55:52.315Z,21.15
2022-12-17T10:58:42.080Z,11.60
2022-12-17T11:01:31.222Z,12.77
2022-12-17T11:04:17.360Z,10.68
2022-12-17T11:07:06.780Z,15.13
2022-12-17T11:10:09.178Z,14.07
2022-12-17T11:13:00.795Z,10.52
2022-12-17T11:15:56.377Z,10.55
2022-12-17T11:18:47.000Z,6.18
2022-12-17T11:21:46.106Z,6.57
2022-12-17T11:24:36.538Z,11.63
2022-12-17T11:27:26.531Z,8.65
2022-12-17T11:30:12.212Z,11.68
2022-12-17T11:33:12.125Z,6.82
2022-12-17T11:36:47.907Z,4.57
2022-12-17T11:39:43.181Z,4.05
2022-12-17T11:42:42.401Z,4.03
2022-12-17T11:45:50.239Z,4.68
2022-12-17T11:49:07.851Z,5.32
2022-12-17T11:52:15.333Z,3.25
2022-12-17T11:55:21.276Z,2.28
2022-12-17T11:58:25.311Z,6.93
2022-12-17T12:01:26.243Z,2.45
2022-12-17T12:04:31.904Z,2.40
2022-12-17T12:07:49.031Z,2.20
2022-12-17T12:10:38.686Z,5.47
2022-12-17T12:13:42.719Z,2.67
2022-12-17T12:16:44.466Z,2.50
2022-12-17T12:19:44.800Z,2.58
2022-12-17T12:22:48.304Z,2.65
2022-12-17T12:26:12.056Z,3.88
2022-12-17T12:29:14.356Z,3.35
2022-12-17T12:32:11.816Z,2.90
2022-12-17T12:37:42.855Z,2.92
2022-12-17T12:40:40.645Z,4.85
2022-12-17T12:43:28.685Z,3.47
2022-12-17T12:46:33.085Z,6.03
2022-12-17T12:49:39.592Z,3.35
2022-12-17T12:52:30.232Z,4.68
2022-12-17T12:55:15.058Z,4.18
2022-12-17T12:58:17.632Z,4.07
2022-12-17T13:01:05.966Z,4.82
2022-12-17T13:03:56.767Z,5.65
2022-12-17T13:06:44.823Z,4.70
2022-12-17T13:09:17.942Z,3.67
2022-12-17T13:11:48.138Z,5.88
2022-12-17T13:14:26.840Z,4.50
2022-12-17T13:16:58.922Z,4.53
2022-12-17T13:19:31.686Z,4.38
2022-12-17T13:22:21.985Z,4.22
2022-12-17T13:24:53.362Z,4.25
2022-12-17T13:27:35.549Z,6.00
2022-12-17T13:30:17.343Z,4.43
2022-12-17T13:33:17.501Z,5.10
2022-12-17T13:36:08.885Z,4.65
2022-12-17T13:39:03.733Z,4.95
2022-12-17T13:41:32.785Z,4.70
2022-12-17T13:44:26.487Z,4.38
2022-12-17T13:46:54.280Z,5.50
2022-12-17T13:49:27.800Z,6.90
2022-12-17T13:52:14.528Z,4.72
2022-12-17T13:54:40.987Z,4.93
2022-12-17T13:57:22.332Z,4.90
2022-12-17T13:59:53.919Z,4.28
2022-12-17T14:02:32.843Z,5.07
2022-12-17T14:05:07.406Z,3.90
2022-12-17T14:07:38.259Z,6.22
2022-12-17T14:10:05.629Z,5.97
2022-12-17T14:12:34.806Z,4.30
2022-12-17T14:15:10.951Z,5.10
2022-12-17T14:17:48.965Z,4.63
2022-12-17T14:20:36.144Z,5.78
2022-12-17T14:23:06.143Z,4.93
2022-12-17T14:25:36.966Z,4.25
2022-12-17T14:28:28.596Z,4.68
2022-12-17T14:31:26.654Z,4.88
2022-12-17T14:34:07.981Z,5.05
2022-12-17T14:36:39.944Z,5.30
2022-12-17T14:39:17.953Z,4.32
2022-12-17T14:42:03.193Z,4.60
2022-12-17T14:44:31.076Z,5.20
2022-12-17T14:47:15.222Z,4.93
2022-12-17T14:49:58.578Z,5.57
2022-12-17T14:52:49.716Z,5.40
2022-12-17T14:55:34.219Z,5.18
2022-12-17T14:58:12.825Z,5.25
2022-12-17T15:01:04.549Z,5.80
2022-12-17T15:03:33.842Z,5.53
2022-12-17T15:06:06.785Z,6.95
2022-12-17T15:08:39.956Z,5.72
2022-12-17T15:11:07.137Z,7.47
2022-12-17T15:13:33.782Z,6.38
2022-12-17T15:16:00.228Z,6.60
2022-12-17T15:18:27.124Z,7.72
2022-12-17T15:20:54.451Z,6.53
2022-12-17T15:23:23.845Z,6.15
2022-12-17T15:25:52.540Z,5.78
2022-12-17T15:28:20.160Z,6.97
2022-12-17T15:30:47.988Z,7.93
2022-12-17T15:33:15.499Z,7.00
2022-12-17T15:35:42.693Z,6.80
2022-12-17T15:38:11.100Z,6.22
2022-12-17T15:40:38.095Z,10.02
2022-12-17T15:43:14.672Z,6.28
2022-12-17T15:45:43.408Z,7.13
2022-12-17T15:48:11.438Z,7.40
2022-12-17T15:50:39.360Z,6.75
2022-12-17T15:53:05.916Z,6.88
2022-12-17T15:55:33.582Z,8.65
2022-12-17T15:58:00.023Z,6.93
2022-12-17T16:00:26.657Z,8.52
2022-12-17T16:02:53.453Z,6.28
2022-12-17T16:05:22.133Z,7.72
2022-12-17T16:07:49.473Z,7.22
2022-12-17T16:10:16.166Z,8.13
2022-12-17T16:12:43.165Z,9.50
2022-12-17T16:15:11.159Z,7.60
2022-12-17T16:17:38.038Z,7.80
2022-12-17T16:20:05.752Z,8.73
2022-12-17T16:22:32.615Z,8.55
2022-12-17T16:24:59.067Z,8.75
2022-12-17T16:27:25.562Z,8.70
2022-12-17T16:29:52.043Z,11.70
2022-12-17T16:32:18.669Z,7.93
2022-12-17T16:34:45.161Z,8.88
2022-12-17T16:37:11.647Z,8.85
2022-12-17T16:39:38.118Z,11.50
2022-12-17T16:42:05.159Z,10.98
2022-12-17T16:44:31.610Z,8.85
2022-12-17T16:46:59.722Z,12.35
2022-12-17T16:49:26.460Z,10.60
2022-12-17T16:51:54.434Z,10.13
2022-12-17T16:54:27.074Z,10.20
2022-12-17T16:56:54.208Z,10.05
2022-12-17T16:59:21.922Z,10.50
2022-12-17T17:01:50.006Z,12.52
2022-12-17T17:04:18.097Z,11.05
2022-12-17T17:06:50.341Z,12.13
2022-12-17T17:09:18.530Z,10.57
2022-12-17T17:11:50.897Z,9.07
2022-12-17T17:14:18.465Z,18.45
2022-12-17T17:16:45.016Z,13.27
2022-12-17T17:19:11.473Z,10.60
2022-12-17T17:21:40.221Z,11.45
2022-12-17T17:24:20.365Z,10.50
2022-12-17T17:26:48.334Z,11.93
2022-12-17T17:29:14.809Z,11.65
2022-12-17T17:34:27.873Z,10.98
2022-12-17T17:36:54.324Z,10.75
2022-12-17T17:39:21.224Z,11.32
2022-12-17T17:41:47.789Z,13.77
2022-12-17T17:44:14.276Z,8.30
2022-12-17T17:46:41.364Z,10.68
2022-12-17T17:49:08.304Z,11.02
2022-12-17T17:54:24.643Z,12.77
2022-12-17T17:56:51.077Z,11.55
2022-12-17T17:59:19.278Z,14.90
2022-12-17T18:01:50.579Z,11.43
2022-12-17T18:04:20.191Z,10.40
2022-12-17T18:07:09.066Z,13.05
2022-12-17T18:09:34.755Z,11.73
2022-12-17T18:12:22.704Z,11.02
2022-12-17T18:15:12.628Z,11.95
2022-12-17T18:17:35.582Z,13.95
2022-12-17T18:20:02.122Z,9.65
2022-12-17T18:22:28.926Z,12.95
2022-12-17T18:24:55.364Z,10.70
2022-12-17T18:27:22.087Z,13.57
2022-12-17T18:29:48.510Z,12.52
2022-12-17T18:32:14.954Z,12.35
2022-12-17T18:34:41.495Z,12.85
2022-12-17T18:37:10.325Z,14.35
2022-12-17T18:39:37.690Z,14.23
2022-12-17T18:42:23.365Z,11.48
2022-12-17T18:44:49.792Z,12.82
2022-12-17T18:47:16.438Z,11.02
2022-12-17T18:49:42.896Z,13.07
2022-12-17T18:52:14.773Z,14.93
2022-12-17T18:54:43.083Z,16.40
2022-12-17T18:57:09.517Z,12.90
2022-12-17T18:59:35.983Z,13.27
2022-12-17T19:02:02.578Z,11.70
2022-12-17T19:04:29.088Z,10.77
2022-12-17T19:06:55.671Z,15.23
2022-12-17T19:09:24.877Z,11.27
2022-12-17T19:11:52.265Z,13.27
2022-12-17T19:14:21.910Z,14.23
2022-12-17T19:16:49.321Z,13.25
2022-12-17T19:19:15.795Z,10.80
2022-12-17T19:21:42.569Z,14.15
2022-12-17T19:24:13.151Z,13.73
2022-12-17T19:26:40.204Z,14.48
2022-12-17T19:29:08.431Z,12.70
2022-12-17T19:31:35.441Z,14.45
2022-12-17T19:34:05.019Z,15.77
2022-12-17T19:36:33.398Z,12.70
2022-12-17T19:39:04.203Z,27.50
2022-12-17T19:41:33.705Z,15.52
2022-12-17T19:44:06.150Z,16.27
2022-12-17T19:46:34.418Z,11.23
2022-12-17T19:49:01.823Z,13.38
2022-12-17T19:51:29.972Z,11.07
2022-12-17T19:53:56.878Z,13.35
2022-12-17T19:56:28.563Z,13.77
2022-12-17T19:59:01.983Z,12.80
2022-12-17T20:01:37.734Z,15.68
2022-12-17T20:04:05.294Z,15.02
2022-12-17T20:06:34.675Z,20.67
2022-12-17T20:09:02.993Z,14.18
2022-12-17T20:11:35.902Z,17.02
2022-12-17T20:14:20.623Z,14.75
2022-12-17T20:16:52.755Z,14.40
2022-12-17T20:19:22.366Z,12.38
2022-12-17T20:21:49.706Z,13.50
2022-12-17T20:24:17.292Z,20.13
2022-12-17T20:26:44.750Z,15.38
2022-12-17T20:29:11.941Z,13.07
2022-12-17T20:31:38.555Z,15.63
2022-12-17T20:34:07.181Z,16.52
2022-12-17T20:36:34.585Z,13.63
2022-12-17T20:39:02.716Z,17.95
2022-12-17T20:41:30.997Z,16.08
2022-12-17T20:43:58.236Z,15.48
2022-12-17T20:46:25.599Z,16.17
2022-12-17T20:48:52.704Z,15.10
2022-12-17T20:51:23.784Z,19.08
2022-12-17T20:53:52.338Z,13.98
2022-12-17T20:56:24.034Z,17.92
2022-12-17T20:58:59.254Z,15.40
2022-12-17T21:01:27.868Z,17.65
2022-12-17T21:03:56.246Z,14.73
2022-12-17T21:06:26.702Z,13.20
2022-12-17T21:08:55.036Z,15.35
2022-12-17T21:11:24.702Z,10.95
2022-12-17T21:13:52.001Z,14.05
2022-12-17T21:16:29.962Z,12.55
2022-12-17T21:18:59.606Z,13.70
2022-12-17T21:21:29.184Z,16.15
2022-12-17T21:23:56.755Z,12.02
2022-12-17T21:26:32.064Z,13.98
2022-12-17T21:28:59.727Z,11.05
2022-12-17T21:31:32.751Z,12.38
2022-12-17T21:34:02.517Z,12.65
2022-12-17T21:36:31.674Z,10.82
2022-12-17T21:38:59.783Z,24.52
2022-12-17T21:41:29.207Z,19.70
2022-12-17T21:43:58.583Z,11.77
2022-12-17T21:46:27.361Z,13.88
2022-12-17T21:48:54.407Z,12.23
2022-12-17T21:51:21.360Z,17.77
2022-12-17T21:53:51.762Z,15.57
2022-12-17T21:56:18.933Z,16.80
2022-12-17T21:58:47.025Z,13.88
2022-12-17T22:01:21.908Z,12.10
2022-12-17T22:03:53.736Z,12.55
2022-12-17T22:06:23.881Z,13.02
2022-12-17T22:08:55.464Z,15.27
2022-12-17T22:11:25.666Z,12.32
2022-12-17T22:14:13.806Z,14.63
2022-12-17T22:16:48.975Z,14.25
2022-12-17T22:19:20.865Z,18.63
2022-12-17T22:21:51.100Z,13.57
2022-12-17T22:24:22.556Z,22.73
2022-12-17T22:26:49.140Z,15.23
2022-12-17T22:29:34.315Z,10.88
2022-12-17T22:32:19.726Z,13.70
2022-12-17T22:36:28.096Z,14.23
2022-12-17T22:40:26.898Z,15.02
2022-12-17T22:44:29.370Z,12.15
2022-12-17T22:44:46.139Z,10.88
2022-12-17T22:46:16.085Z,14.05
2022-12-17T22:48:42.530Z,11.20
2022-12-17T22:51:11.497Z,13.18
2022-12-17T22:53:46.671Z,20.67
2022-12-17T22:56:30.295Z,16.75
2022-12-17T22:58:59.960Z,14.07
2022-12-17T23:01:26.886Z,12.82
2022-12-17T23:04:00.653Z,12.15
2022-12-17T23:06:27.394Z,13.20
2022-12-17T23:08:53.978Z,10.88
2022-12-17T23:11:23.064Z,13.20
2022-12-17T23:13:50.161Z,10.05
2022-12-17T23:16:17.411Z,9.32
2022-12-17T23:18:45.287Z,10.52
2022-12-17T23:21:17.630Z,10.05
2022-12-17T23:23:44.632Z,12.32
2022-12-17T23:26:20.818Z,13.57
2022-12-17T23:28:48.326Z,14.98
2022-12-17T23:31:17.937Z,12.88
2022-12-17T23:33:45.380Z,11.10
2022-12-17T23:36:14.566Z,10.05
2022-12-17T23:38:41.659Z,13.55
2022-12-17T23:41:17.044Z,14.52
2022-12-17T23:43:44.390Z,15.23
2022-12-17T23:46:11.345Z,13.15
2022-12-17T23:48:45.600Z,12.27
2022-12-17T23:51:14.858Z,15.32
2022-12-17T23:53:42.643Z,12.73
2022-12-17T23:56:12.696Z,13.63
2022-12-17T23:58:40.354Z,11.82
